Time;durP1;ratioP1;P1;durP2;ratioP2;P2;SDS_P1;SDS_P2;PMS_P1;PMS_P2;Temp;Humidity;BMP_temperature;BMP_pressure;BME280_temperature;BME280_humidity;BME280_pressure;Samples;Min_cycle;Max_cycle;Signal;HPM_P1;HPM_P2
2022/01/05 00:01:39;;;;;;;13.43;9.05;;;4.50;99.90;;;;;;5039603;28;20379;-93
2022/01/05 00:04:05;;;;;;;13.65;8.10;;;4.50;99.90;;;;;;5039343;28;20029;-93
2022/01/05 00:06:31;;;;;;;14.73;8.90;;;4.50;99.90;;;;;;5039791;28;20040;-93
2022/01/05 00:08:56;;;;;;;12.52;8.65;;;4.40;99.90;;;;;;5039755;28;20383;-92
2022/01/05 00:11:23;;;;;;;14.25;8.85;;;4.50;99.90;;;;;;5039726;28;20124;-93
2022/01/05 00:13:48;;;;;;;13.40;8.80;;;4.40;99.90;;;;;;5039333;28;20158;-93
2022/01/05 00:16:14;;;;;;;17.58;10.07;;;4.50;99.90;;;;;;5039237;28;20112;-93
2022/01/05 00:18:40;;;;;;;18.98;10.10;;;4.50;99.90;;;;;;5038945;28;20526;-93
2022/01/05 00:21:05;;;;;;;17.30;10.45;;;4.40;99.90;;;;;;5039148;28;20025;-93
2022/01/05 00:23:31;;;;;;;16.27;9.75;;;4.40;99.90;;;;;;5038906;28;20029;-92
2022/01/05 00:25:59;;;;;;;16.92;10.23;;;4.40;99.90;;;;;;5040187;28;20025;-93
2022/01/05 00:28:25;;;;;;;16.02;9.50;;;4.40;99.90;;;;;;5039184;28;20033;-94
2022/01/05 00:30:50;;;;;;;14.02;8.80;;;4.40;99.90;;;;;;5039065;28;20036;-93
2022/01/05 00:33:17;;;;;;;13.77;8.75;;;4.40;99.90;;;;;;5039160;28;20021;-94
2022/01/05 00:35:43;;;;;;;17.55;9.18;;;4.40;99.90;;;;;;5039339;28;20430;-96
2022/01/05 00:38:09;;;;;;;16.13;9.55;;;4.30;99.90;;;;;;5039982;28;20021;-94
2022/01/05 00:40:34;;;;;;;15.88;9.23;;;4.30;99.90;;;;;;5038841;28;20472;-94
2022/01/05 00:43:00;;;;;;;17.08;9.15;;;4.30;99.90;;;;;;5039961;28;20120;-95
2022/01/05 00:45:26;;;;;;;19.02;10.82;;;4.30;99.90;;;;;;5040326;28;20032;-95
2022/01/05 00:47:51;;;;;;;17.92;9.90;;;4.20;99.90;;;;;;5041554;28;20029;-95
2022/01/05 00:50:17;;;;;;;24.35;10.18;;;4.30;99.90;;;;;;5039293;28;20103;-94
2022/01/05 00:52:43;;;;;;;17.83;10.23;;;4.20;99.90;;;;;;5038948;28;20018;-95
2022/01/05 00:55:09;;;;;;;16.80;10.13;;;4.20;99.90;;;;;;5038714;28;20092;-94
2022/01/05 00:57:34;;;;;;;20.02;9.10;;;4.10;99.90;;;;;;5038589;28;20048;-94
2022/01/05 01:00:00;;;;;;;17.55;10.00;;;4.10;99.90;;;;;;5038454;28;20120;-95
2022/01/05 01:02:26;;;;;;;15.95;10.70;;;4.10;99.90;;;;;;5038311;28;20067;-96
2022/01/05 01:04:51;;;;;;;19.08;11.30;;;4.00;99.90;;;;;;5038410;28;20483;-95
2022/01/05 01:07:17;;;;;;;17.15;9.85;;;4.00;99.90;;;;;;5039011;28;20021;-95
2022/01/05 01:09:43;;;;;;;15.50;10.18;;;4.00;99.90;;;;;;5038422;28;20021;-95
2022/01/05 01:12:09;;;;;;;17.67;10.75;;;4.00;99.90;;;;;;5038196;28;20021;-95
2022/01/05 01:14:35;;;;;;;17.88;10.45;;;4.00;99.90;;;;;;5038096;28;20028;-94
2022/01/05 01:17:02;;;;;;;16.50;10.32;;;4.00;99.90;;;;;;5039021;28;20029;-95
2022/01/05 01:19:27;;;;;;;18.15;10.15;;;4.10;99.90;;;;;;5038739;28;20021;-95
2022/01/05 01:21:53;;;;;;;19.17;11.73;;;4.10;99.90;;;;;;5038463;28;20028;-96
2022/01/05 01:24:19;;;;;;;17.58;10.68;;;4.00;99.90;;;;;;5038648;28;20059;-96
2022/01/05 01:26:45;;;;;;;19.52;10.70;;;4.00;99.90;;;;;;5038970;28;20029;-95
2022/01/05 01:29:10;;;;;;;20.42;11.43;;;4.00;99.90;;;;;;5039208;28;20028;-94
2022/01/05 01:31:36;;;;;;;18.33;11.57;;;4.00;99.90;;;;;;5038788;28;20029;-96
2022/01/05 01:34:02;;;;;;;24.25;11.55;;;4.00;99.90;;;;;;5037465;28;20418;-94
2022/01/05 01:36:28;;;;;;;19.35;11.30;;;4.00;99.90;;;;;;5037392;28;20100;-96
2022/01/05 01:38:54;;;;;;;16.92;11.30;;;4.00;99.90;;;;;;5038591;28;20424;-96
2022/01/05 01:41:20;;;;;;;21.05;11.15;;;4.00;99.90;;;;;;5039863;28;20029;-96
2022/01/05 01:43:45;;;;;;;19.80;11.40;;;4.00;99.90;;;;;;5038576;28;20021;-95
2022/01/05 01:46:11;;;;;;;17.73;11.45;;;4.00;99.90;;;;;;5037569;28;20064;-96
2022/01/05 01:48:37;;;;;;;15.43;10.65;;;3.90;99.90;;;;;;5038191;28;20021;-96
2022/01/05 01:51:03;;;;;;;18.45;10.27;;;3.90;99.90;;;;;;5054662;28;20044;-95
2022/01/05 01:53:29;;;;;;;22.27;11.07;;;4.00;99.90;;;;;;5074143;28;20052;-95
2022/01/05 01:55:58;;;;;;;17.25;10.60;;;3.90;99.90;;;;;;5074080;28;20059;-96
2022/01/05 01:58:26;;;;;;;16.63;10.48;;;3.90;99.90;;;;;;5074861;28;20031;-96
2022/01/05 02:00:51;;;;;;;26.90;12.13;;;4.00;99.90;;;;;;5074633;28;20047;-96
2022/01/05 02:03:17;;;;;;;25.02;13.20;;;4.00;99.90;;;;;;5074151;28;20024;-96
2022/01/05 02:05:43;;;;;;;26.52;15.38;;;4.00;99.90;;;;;;5077878;28;20063;-96
2022/01/05 02:08:09;;;;;;;27.83;17.80;;;4.00;99.90;;;;;;5076248;28;20124;-96
2022/01/05 02:10:34;;;;;;;24.60;17.38;;;4.10;99.90;;;;;;5074298;28;20024;-96
2022/01/05 02:13:00;;;;;;;21.67;15.38;;;4.10;99.90;;;;;;5077408;28;20052;-96
2022/01/05 02:15:26;;;;;;;23.55;15.05;;;4.10;99.90;;;;;;5073674;28;20020;-95
2022/01/05 02:20:29;;;;;;;24.63;15.40;;;4.10;99.90;;;;;;5075147;28;20451;-95
2022/01/05 02:22:55;;;;;;;23.48;16.95;;;4.10;99.90;;;;;;5073479;28;20021;-95
2022/01/05 02:25:22;;;;;;;25.20;16.40;;;4.10;99.90;;;;;;5073669;28;20032;-96
2022/01/05 02:27:51;;;;;;;24.33;16.27;;;4.10;99.90;;;;;;5075627;28;20528;-96
2022/01/05 02:30:24;;;;;;;26.25;17.05;;;4.10;99.90;;;;;;5073305;28;20028;-96
2022/01/05 02:32:50;;;;;;;24.88;16.05;;;4.10;99.90;;;;;;5073518;28;20044;-95
2022/01/05 02:35:17;;;;;;;24.75;15.52;;;4.10;99.90;;;;;;5073396;28;20517;-96
2022/01/05 02:37:49;;;;;;;32.53;15.70;;;4.10;99.90;;;;;;5074740;28;20359;-96
2022/01/05 02:40:17;;;;;;;21.08;13.02;;;4.10;99.90;;;;;;5073874;28;20063;-95
2022/01/05 02:42:43;;;;;;;20.75;12.48;;;4.10;99.90;;;;;;5077759;28;20034;-96
2022/01/05 02:45:10;;;;;;;22.88;12.23;;;4.10;99.90;;;;;;5076317;28;20021;-95
2022/01/05 02:47:37;;;;;;;19.63;12.05;;;4.10;99.90;;;;;;5075481;28;20039;-95
2022/01/05 02:50:05;;;;;;;19.83;12.70;;;4.10;99.90;;;;;;5075900;28;20024;-96
2022/01/05 02:52:31;;;;;;;20.92;12.68;;;4.10;99.90;;;;;;5040448;28;20099;-95
2022/01/05 02:54:57;;;;;;;22.20;12.43;;;4.10;99.90;;;;;;5056934;28;20017;-95
2022/01/05 02:57:23;;;;;;;24.60;13.00;;;4.10;99.90;;;;;;5057106;28;20040;-94
2022/01/05 02:59:49;;;;;;;20.17;12.15;;;4.10;99.90;;;;;;5058731;28;20107;-95
2022/01/05 03:02:21;;;;;;;23.98;12.43;;;4.10;99.90;;;;;;5058170;28;20088;-96
2022/01/05 03:04:52;;;;;;;19.05;11.10;;;4.20;99.90;;;;;;5049949;28;20067;-96
2022/01/05 03:07:18;;;;;;;;;;;4.20;99.90;;;;;;5063293;28;20025;-96
2022/01/05 03:12:34;;;;;;;22.55;12.65;;;4.20;99.90;;;;;;5053046;28;20098;-96
2022/01/05 03:17:40;;;;;;;19.50;12.02;;;4.20;99.90;;;;;;5039560;22;20112;-96
2022/01/05 03:20:07;;;;;;;19.08;11.27;;;4.20;99.90;;;;;;5017044;28;20026;-96
2022/01/05 03:22:35;;;;;;;20.45;10.55;;;4.20;99.90;;;;;;5019920;28;20087;-96
2022/01/05 03:25:09;;;;;;;21.77;11.82;;;4.20;99.90;;;;;;5094109;22;20020;-96
2022/01/05 03:27:37;;;;;;;21.25;11.50;;;4.20;99.90;;;;;;5021365;28;20097;-96
2022/01/05 03:30:11;;;;;;;19.85;11.63;;;4.10;99.90;;;;;;5144971;22;20065;-96
2022/01/05 03:32:47;;;;;;;19.20;11.10;;;4.10;99.90;;;;;;5025678;28;20033;-95
2022/01/05 03:35:17;;;;;;;18.33;11.63;;;4.10;99.90;;;;;;5159314;22;20068;-96
2022/01/05 03:40:36;;;;;;;17.45;10.55;;;4.10;99.90;;;;;;5233472;23;20064;-96
2022/01/05 03:43:12;;;;;;;24.73;11.77;;;4.00;99.90;;;;;;5077996;22;20107;-96
2022/01/05 03:45:39;;;;;;;20.70;12.00;;;4.00;99.90;;;;;;5042575;28;20419;-95
2022/01/05 03:48:09;;;;;;;18.38;11.63;;;4.00;99.90;;;;;;5040738;28;20026;-92
2022/01/05 03:53:08;;;;;;;23.40;10.82;;;4.00;99.90;;;;;;4988084;28;20047;-95
2022/01/05 03:55:45;;;;;;;16.98;10.43;;;4.00;99.90;;;;;;4983526;28;20097;-96
2022/01/05 03:58:11;;;;;;;16.92;10.00;;;4.00;99.90;;;;;;4983597;28;20034;-96
2022/01/05 04:00:43;;;;;;;18.83;10.93;;;4.00;99.90;;;;;;5208429;23;20044;-96
2022/01/05 04:03:09;;;;;;;18.10;10.50;;;4.00;99.90;;;;;;5038608;28;20064;-95
2022/01/05 04:05:35;;;;;;;16.92;10.65;;;3.90;99.90;;;;;;5041006;28;20029;-95
2022/01/05 04:08:07;;;;;;;16.85;10.05;;;3.90;99.90;;;;;;5040553;28;20026;-96
2022/01/05 04:10:36;;;;;;;16.27;10.02;;;3.90;99.90;;;;;;5042399;28;20128;-96
2022/01/05 04:13:02;;;;;;;18.98;10.82;;;4.00;99.90;;;;;;5041040;28;20032;-93
2022/01/05 04:15:28;;;;;;;17.23;10.10;;;3.90;99.90;;;;;;5036418;28;20024;-95
2022/01/05 04:17:54;;;;;;;18.55;10.52;;;4.00;99.90;;;;;;5037081;28;20021;-95
2022/01/05 04:20:20;;;;;;;18.50;9.95;;;4.00;99.90;;;;;;5036523;28;20119;-95
2022/01/05 04:22:46;;;;;;;18.25;10.23;;;4.00;99.90;;;;;;5036047;28;20028;-95
2022/01/05 04:25:13;;;;;;;16.65;10.40;;;4.00;99.90;;;;;;5036103;28;20089;-95
2022/01/05 04:27:38;;;;;;;15.88;9.82;;;4.00;99.90;;;;;;5036930;28;20427;-95
2022/01/05 04:30:07;;;;;;;22.92;11.63;;;4.00;99.90;;;;;;5037059;28;20025;-96
2022/01/05 04:32:34;;;;;;;22.48;13.43;;;4.00;99.90;;;;;;5038669;28;20048;-96
2022/01/05 04:35:00;;;;;;;21.52;11.52;;;4.00;99.90;;;;;;5019473;28;20057;-93
2022/01/05 04:37:26;;;;;;;19.15;11.77;;;4.00;99.90;;;;;;5035893;28;20468;-95
2022/01/05 04:39:52;;;;;;;21.20;12.25;;;4.00;99.90;;;;;;5035780;28;20049;-95
2022/01/05 04:42:18;;;;;;;21.10;11.85;;;3.90;99.90;;;;;;5035668;28;20030;-95
2022/01/05 04:44:50;;;;;;;19.65;11.85;;;4.00;99.90;;;;;;5038036;28;20072;-96
2022/01/05 04:47:15;;;;;;;20.13;11.57;;;4.00;99.90;;;;;;5036725;28;20025;-95
2022/01/05 04:49:41;;;;;;;19.85;11.32;;;4.00;99.90;;;;;;5035730;28;20531;-95
2022/01/05 04:52:07;;;;;;;18.98;11.68;;;4.00;99.90;;;;;;5035255;28;20033;-94
2022/01/05 04:54:33;;;;;;;21.45;13.40;;;4.10;99.90;;;;;;5035307;28;20502;-96
2022/01/05 04:56:58;;;;;;;19.33;12.35;;;4.10;99.90;;;;;;5035407;28;20033;-95
2022/01/05 04:59:24;;;;;;;23.83;13.13;;;4.10;99.90;;;;;;5038195;28;20029;-96
2022/01/05 05:01:53;;;;;;;20.75;13.23;;;4.10;99.90;;;;;;5037604;28;20117;-96
2022/01/05 05:04:19;;;;;;;23.73;12.73;;;4.20;99.90;;;;;;5043259;28;20052;-96
2022/01/05 05:06:44;;;;;;;23.85;11.70;;;4.20;99.90;;;;;;5041119;28;20071;-94
2022/01/05 05:09:10;;;;;;;23.70;13.07;;;4.20;99.90;;;;;;5041005;28;20108;-96
2022/01/05 05:11:36;;;;;;;24.48;13.00;;;4.30;99.90;;;;;;5035596;28;20029;-96
2022/01/05 05:14:01;;;;;;;21.67;12.27;;;4.20;99.90;;;;;;5038811;28;20076;-96
2022/01/05 05:16:27;;;;;;;18.77;11.13;;;4.30;99.90;;;;;;5039063;28;20032;-95
2022/01/05 05:18:53;;;;;;;18.48;11.55;;;4.30;99.90;;;;;;5036151;28;20021;-94
2022/01/05 05:21:18;;;;;;;20.27;12.85;;;4.30;99.90;;;;;;5034806;28;20510;-94
2022/01/05 05:23:44;;;;;;;19.98;11.63;;;4.30;99.90;;;;;;5034706;28;20491;-95
2022/01/05 05:26:10;;;;;;;21.63;12.63;;;4.30;99.90;;;;;;5035596;28;20111;-95
2022/01/05 05:28:36;;;;;;;18.83;12.43;;;4.30;99.90;;;;;;5037540;28;20025;-96
2022/01/05 15:18:44;;;;;;;75.63;41.95;;;6.10;99.90;;;;;;5076082;27;20387;-94
2022/01/05 15:21:13;;;;;;;81.57;54.25;;;6.10;99.90;;;;;;5071034;28;20108;-94
2022/01/05 15:23:40;;;;;;;80.38;51.83;;;6.10;99.90;;;;;;5070948;28;20029;-94
2022/01/05 15:26:06;;;;;;;79.10;51.25;;;6.10;99.90;;;;;;5070849;28;20024;-94
2022/01/05 15:28:32;;;;;;;82.50;48.75;;;6.10;99.90;;;;;;5070320;28;20032;-94
2022/01/05 15:30:59;;;;;;;87.07;58.35;;;6.20;99.90;;;;;;5071821;28;20048;-96
2022/01/05 15:33:26;;;;;;;67.55;42.75;;;6.20;99.90;;;;;;5070179;28;20128;-95
2022/01/05 15:35:52;;;;;;;73.93;45.00;;;6.30;99.90;;;;;;5070227;28;20120;-95
2022/01/05 15:52:59;;;;;;;;;;;;;;;;;;;;;
2022/01/05 15:56:31;;;;;;;;;;;;;;;;;;;;;
2022/01/05 16:03:56;;;;;;;;;;;;;;;;;;;;;
2022/01/05 16:45:31;;;;;;;35.03;23.77;;;6.60;99.90;;;;;;4783988;30;20099;-96
2022/01/05 16:48:23;;;;;;;32.70;21.38;;;6.70;99.90;;;;;;4810968;29;20077;-96
2022/01/05 16:54:32;;;;;;;;;;;;;;;;;;;;;
2022/01/05 17:03:08;;;;;;;27.92;18.83;;;6.80;99.90;;;;;;4922116;29;20391;-96
2022/01/05 17:05:58;;;;;;;31.83;21.98;;;6.70;99.90;;;;;;4907066;29;20095;-96
2022/01/05 17:08:35;;;;;;;38.50;24.30;;;6.80;99.90;;;;;;4905520;29;20032;-96
2022/01/05 17:11:03;;;;;;;46.65;27.13;;;6.80;99.90;;;;;;4906178;29;20031;-96
2022/01/05 17:13:44;;;;;;;57.90;33.17;;;6.80;99.90;;;;;;4906496;29;20537;-96
2022/01/05 17:16:10;;;;;;;69.47;36.58;;;6.80;99.90;;;;;;4905791;29;20175;-95
2022/01/05 17:18:36;;;;;;;60.53;32.50;;;6.80;99.90;;;;;;4903111;29;20490;-95
2022/01/05 17:21:02;;;;;;;60.83;34.78;;;6.70;99.90;;;;;;4903227;29;20028;-95
2022/01/05 17:23:27;;;;;;;52.47;31.50;;;6.70;99.90;;;;;;4903208;29;20384;-96
2022/01/05 17:25:53;;;;;;;50.33;30.10;;;6.70;99.90;;;;;;4903215;29;20494;-94
2022/01/05 17:28:19;;;;;;;50.90;30.58;;;6.80;99.90;;;;;;4903563;29;20039;-95
2022/01/05 17:30:44;;;;;;;52.45;31.08;;;6.70;99.90;;;;;;4903172;29;20071;-94
2022/01/05 17:33:11;;;;;;;46.90;29.67;;;6.80;99.90;;;;;;4902993;29;20102;-94
2022/01/05 17:35:37;;;;;;;36.38;21.58;;;6.70;99.90;;;;;;4902861;29;20111;-94
2022/01/05 17:38:03;;;;;;;32.25;19.42;;;6.70;99.90;;;;;;4902793;29;20538;-94
2022/01/05 17:40:29;;;;;;;33.03;20.58;;;6.70;99.90;;;;;;4902884;29;20025;-96
2022/01/05 17:42:55;;;;;;;44.25;27.35;;;6.70;99.90;;;;;;4902794;29;20032;-95
2022/01/05 17:45:21;;;;;;;34.38;21.70;;;6.70;99.90;;;;;;4903547;29;20126;-96
2022/01/05 17:47:48;;;;;;;32.03;21.08;;;6.70;99.90;;;;;;4903807;29;20028;-96
2022/01/05 17:50:14;;;;;;;30.83;19.50;;;6.70;99.90;;;;;;4902987;29;20024;-95
2022/01/05 17:52:40;;;;;;;29.13;19.23;;;6.70;99.90;;;;;;4902641;29;20115;-96
2022/01/05 17:55:06;;;;;;;30.42;18.10;;;6.80;99.90;;;;;;4902473;29;20490;-94
2022/01/05 17:57:32;;;;;;;29.05;19.58;;;6.80;99.90;;;;;;4902540;29;20032;-95
2022/01/05 17:59:57;;;;;;;26.60;17.17;;;6.70;99.90;;;;;;4902751;29;20035;-96
2022/01/05 18:02:25;;;;;;;34.28;19.92;;;6.70;99.90;;;;;;4902573;29;20024;-95
2022/01/05 18:04:51;;;;;;;30.63;19.80;;;6.80;99.90;;;;;;4902320;29;20028;-96
2022/01/05 18:07:17;;;;;;;33.13;21.38;;;6.80;99.90;;;;;;4902330;29;20032;-95
2022/01/05 18:09:46;;;;;;;39.45;25.25;;;6.80;99.90;;;;;;4902889;29;20028;-96
2022/01/05 18:12:11;;;;;;;33.00;20.05;;;6.80;99.90;;;;;;4934031;29;20071;-96
2022/01/05 18:14:37;;;;;;;33.15;19.55;;;6.80;99.90;;;;;;4903975;29;20032;-96
2022/01/05 18:17:04;;;;;;;32.42;21.27;;;6.70;99.90;;;;;;4903934;29;20095;-95
2022/01/05 18:19:30;;;;;;;38.38;25.17;;;6.70;99.90;;;;;;4903401;29;20020;-95
2022/01/05 18:21:57;;;;;;;43.20;26.23;;;6.70;99.90;;;;;;4901926;29;20115;-96
2022/01/05 18:24:22;;;;;;;45.88;27.02;;;6.70;99.90;;;;;;4901918;29;20099;-95
2022/01/05 18:26:48;;;;;;;41.35;25.98;;;6.70;99.90;;;;;;4902091;29;20086;-96
2022/01/05 18:29:15;;;;;;;34.30;21.45;;;6.70;99.90;;;;;;4901962;29;20067;-95
2022/01/05 18:31:41;;;;;;;47.13;28.42;;;6.70;99.90;;;;;;4901749;29;20110;-94
2022/01/05 18:34:08;;;;;;;48.40;29.33;;;6.70;99.90;;;;;;4901889;29;20032;-95
2022/01/05 18:36:34;;;;;;;51.45;32.08;;;6.70;99.90;;;;;;4901763;29;20028;-96
2022/01/05 18:39:01;;;;;;;56.25;33.50;;;6.70;99.90;;;;;;4902663;29;20083;-96
2022/01/05 18:41:27;;;;;;;45.47;28.85;;;6.60;99.90;;;;;;4902203;29;20031;-95
2022/01/05 18:43:55;;;;;;;41.35;26.83;;;6.60;99.90;;;;;;4902351;29;20024;-96
2022/01/05 18:46:22;;;;;;;44.55;25.25;;;6.60;99.90;;;;;;4901597;29;20471;-95
2022/01/05 18:48:52;;;;;;;41.65;25.52;;;6.60;99.90;;;;;;4902307;29;20047;-95
2022/01/05 18:51:18;;;;;;;44.50;27.92;;;6.50;99.90;;;;;;4901380;29;20056;-95
2022/01/05 18:53:44;;;;;;;41.33;27.88;;;6.50;99.90;;;;;;4901533;29;20024;-95
2022/01/05 18:56:10;;;;;;;37.42;24.83;;;6.50;99.90;;;;;;4902260;29;20024;-93
2022/01/05 18:58:39;;;;;;;37.65;25.02;;;6.50;99.90;;;;;;4901510;29;20542;-95
2022/01/05 19:01:06;;;;;;;36.58;23.23;;;6.40;99.90;;;;;;4902690;29;20489;-95
2022/01/05 19:03:32;;;;;;;30.92;22.63;;;6.40;99.90;;;;;;4901539;29;20489;-91
2022/01/05 19:05:57;;;;;;;41.13;26.58;;;6.40;99.90;;;;;;4901669;29;20036;-94
2022/01/05 19:08:23;;;;;;;37.72;26.05;;;6.40;99.90;;;;;;4901578;29;20137;-94
2022/01/05 19:10:49;;;;;;;39.28;25.88;;;6.40;99.90;;;;;;4901330;29;20168;-94
2022/01/05 19:13:15;;;;;;;39.35;25.35;;;6.40;99.90;;;;;;4902111;29;20371;-94
2022/01/05 19:15:40;;;;;;;39.38;26.23;;;6.40;99.90;;;;;;4901262;29;20039;-95
2022/01/05 19:18:06;;;;;;;35.53;23.90;;;6.40;99.90;;;;;;4902174;29;20035;-95
2022/01/05 19:20:32;;;;;;;37.35;25.30;;;6.40;99.90;;;;;;4901416;29;20039;-94
2022/01/05 19:22:58;;;;;;;38.30;25.13;;;6.40;99.90;;;;;;4918399;29;20032;-95
2022/01/05 19:25:27;;;;;;;34.08;24.05;;;6.40;99.90;;;;;;4901339;29;20443;-95
2022/01/05 19:27:53;;;;;;;41.00;26.00;;;6.40;99.90;;;;;;4901354;29;20028;-95
2022/01/05 19:30:19;;;;;;;36.97;24.80;;;6.40;99.90;;;;;;4901741;29;20048;-94
2022/01/05 19:32:45;;;;;;;35.30;21.92;;;6.40;99.90;;;;;;4901317;29;20032;-94
2022/01/05 19:35:12;;;;;;;34.22;22.67;;;6.50;99.90;;;;;;4901293;29;20102;-93
2022/01/05 19:37:38;;;;;;;41.08;23.95;;;6.40;99.90;;;;;;4901034;29;20028;-94
2022/01/05 19:40:05;;;;;;;46.10;25.50;;;6.40;99.90;;;;;;4902227;29;20028;-94
2022/01/05 19:42:30;;;;;;;55.55;30.67;;;6.40;99.90;;;;;;4901277;29;20032;-95
2022/01/05 19:44:56;;;;;;;53.58;31.13;;;6.40;99.90;;;;;;4901330;29;20517;-94
2022/01/05 19:47:22;;;;;;;49.85;29.63;;;6.40;99.90;;;;;;4901043;29;20542;-95
2022/01/05 19:49:51;;;;;;;48.13;28.05;;;6.40;99.90;;;;;;4901902;29;20024;-94
2022/01/05 19:52:22;;;;;;;51.43;27.40;;;6.40;99.90;;;;;;4901224;29;20039;-95
2022/01/05 19:54:55;;;;;;;43.15;26.33;;;6.40;99.90;;;;;;4901228;29;20115;-95
2022/01/05 19:57:21;;;;;;;45.78;28.10;;;6.40;99.90;;;;;;4902086;29;20028;-95
2022/01/05 19:59:47;;;;;;;34.55;22.63;;;6.40;99.90;;;;;;4900986;29;20031;-95
2022/01/05 20:02:15;;;;;;;41.60;26.02;;;6.50;99.90;;;;;;4901805;29;20035;-94
2022/01/05 20:04:47;;;;;;;43.47;26.88;;;6.40;99.90;;;;;;4903296;29;20031;-94
2022/01/05 20:07:13;;;;;;;43.58;26.90;;;6.50;99.90;;;;;;4904402;29;20036;-94
2022/01/05 20:09:41;;;;;;;43.88;26.25;;;6.50;99.90;;;;;;4905323;29;20036;-94
2022/01/05 20:12:08;;;;;;;64.13;37.45;;;6.50;99.90;;;;;;4905193;29;20028;-95
2022/01/05 20:14:35;;;;;;;43.15;26.58;;;6.50;99.90;;;;;;4904470;29;20031;-95
2022/01/05 20:17:01;;;;;;;54.58;32.15;;;6.40;99.90;;;;;;4904280;29;20036;-95
2022/01/05 20:19:27;;;;;;;38.17;23.15;;;6.40;99.90;;;;;;4905062;29;20028;-95
2022/01/05 20:21:53;;;;;;;42.95;26.42;;;6.40;99.90;;;;;;4904412;29;20359;-94
2022/01/05 20:24:19;;;;;;;41.55;23.67;;;6.40;99.90;;;;;;4904385;29;20024;-96
2022/01/05 20:26:45;;;;;;;38.25;22.80;;;6.40;99.90;;;;;;4904151;29;20474;-95
2022/01/05 20:29:11;;;;;;;40.83;24.95;;;6.30;99.90;;;;;;4904363;29;20127;-95
2022/01/05 20:31:40;;;;;;;48.08;28.23;;;6.30;99.90;;;;;;4903964;29;20133;-94
2022/01/05 20:34:06;;;;;;;52.38;30.90;;;6.20;99.90;;;;;;4904461;29;20061;-95
2022/01/05 20:36:33;;;;;;;62.70;34.53;;;6.20;99.90;;;;;;4904424;29;20032;-95
2022/01/05 20:38:59;;;;;;;63.72;36.03;;;6.20;99.90;;;;;;4904543;29;20035;-95
2022/01/05 20:41:24;;;;;;;65.85;38.05;;;6.10;99.90;;;;;;4903833;29;20028;-95
2022/01/05 20:43:50;;;;;;;56.00;32.05;;;6.10;99.90;;;;;;4904105;29;20115;-95
2022/01/05 20:46:16;;;;;;;59.60;32.30;;;6.10;99.90;;;;;;4904622;29;20058;-95
2022/01/05 20:48:45;;;;;;;44.83;28.27;;;6.10;99.90;;;;;;4904621;29;20123;-96
2022/01/05 20:51:11;;;;;;;47.40;28.40;;;6.10;99.90;;;;;;4903833;29;20028;-95
2022/01/05 20:53:37;;;;;;;42.90;27.55;;;6.20;99.90;;;;;;4903562;29;20028;-94
2022/01/05 20:56:04;;;;;;;50.25;28.95;;;6.20;99.90;;;;;;4903713;29;20028;-94
2022/01/05 20:58:29;;;;;;;47.33;25.48;;;6.20;99.90;;;;;;4903495;29;20028;-94
2022/01/05 21:00:56;;;;;;;41.38;22.58;;;6.30;99.90;;;;;;4903699;29;20056;-95
2022/01/05 21:03:22;;;;;;;30.52;19.52;;;6.20;99.90;;;;;;4903449;29;20024;-95
2022/01/05 21:05:47;;;;;;;30.50;19.15;;;6.30;99.90;;;;;;4903472;29;20055;-95
2022/01/05 21:08:13;;;;;;;28.52;18.73;;;6.30;99.90;;;;;;4903410;29;20034;-94
2022/01/05 21:10:39;;;;;;;30.40;18.05;;;6.30;99.90;;;;;;4903972;29;20032;-95
2022/01/05 21:13:07;;;;;;;36.25;20.63;;;6.30;99.90;;;;;;4903509;29;20040;-95
2022/01/05 21:15:35;;;;;;;67.07;34.25;;;6.30;99.90;;;;;;4903099;29;20032;-96
2022/01/05 21:18:03;;;;;;;42.78;25.67;;;6.30;99.90;;;;;;4903845;29;20060;-96
2022/01/05 21:20:29;;;;;;;81.60;45.38;;;6.30;99.90;;;;;;4903134;29;20111;-94
2022/01/05 21:22:55;;;;;;;38.58;24.30;;;6.30;99.90;;;;;;4903525;29;20048;-96
2022/01/05 21:25:23;;;;;;;45.78;30.52;;;6.20;99.90;;;;;;4903355;29;20455;-95
2022/01/05 21:27:56;;;;;;;43.75;29.63;;;6.30;99.90;;;;;;4903044;29;20486;-95
2022/01/05 21:30:28;;;;;;;39.15;27.98;;;6.30;99.90;;;;;;4903571;29;20099;-96
2022/01/05 21:32:57;;;;;;;32.60;22.65;;;6.30;99.90;;;;;;4903720;29;20498;-96
2022/01/05 21:35:23;;;;;;;43.60;28.48;;;6.20;99.90;;;;;;4903276;29;20032;-96
2022/01/05 21:37:52;;;;;;;32.88;22.33;;;6.20;99.90;;;;;;4903400;29;20427;-96
2022/01/05 21:40:20;;;;;;;30.50;19.20;;;6.20;99.90;;;;;;4903220;29;20028;-96
2022/01/05 21:42:49;;;;;;;29.38;19.55;;;6.20;99.90;;;;;;4905125;29;20467;-96
2022/01/05 21:45:15;;;;;;;25.80;17.27;;;6.20;99.90;;;;;;4903854;29;20032;-96
2022/01/05 21:47:41;;;;;;;28.83;17.55;;;6.30;99.90;;;;;;4904403;29;20054;-96
2022/01/05 21:50:08;;;;;;;25.33;16.90;;;6.30;99.90;;;;;;4905455;29;20493;-96
2022/01/05 21:52:35;;;;;;;24.65;17.00;;;6.30;99.90;;;;;;4903684;29;20118;-95
2022/01/05 21:55:01;;;;;;;26.23;15.93;;;6.30;99.90;;;;;;4903685;29;20035;-96
2022/01/05 21:57:27;;;;;;;30.50;18.13;;;6.30;99.90;;;;;;4902626;29;20032;-96
2022/01/05 21:59:52;;;;;;;27.65;18.35;;;6.30;99.90;;;;;;4903328;29;20024;-96
2022/01/05 22:02:33;;;;;;;29.73;19.45;;;6.30;99.90;;;;;;4902606;29;20020;-95
2022/01/05 22:04:59;;;;;;;;;;;6.30;99.90;;;;;;4934813;29;20024;-95
2022/01/05 22:07:38;;;;;;;25.85;16.55;;;6.20;99.90;;;;;;4904276;29;20413;-96
2022/01/05 22:10:05;;;;;;;28.42;15.90;;;6.30;99.90;;;;;;4902725;29;20394;-96
2022/01/05 22:12:34;;;;;;;25.52;16.20;;;6.20;99.90;;;;;;4902460;29;20516;-96
2022/01/05 22:15:00;;;;;;;22.70;15.73;;;6.20;99.90;;;;;;4902359;29;20035;-95
2022/01/05 22:17:25;;;;;;;24.63;15.98;;;6.20;99.90;;;;;;4902011;29;20024;-95
2022/01/05 22:19:51;;;;;;;30.00;19.23;;;6.20;99.90;;;;;;4902929;29;20028;-94
2022/01/05 22:22:17;;;;;;;33.03;21.80;;;6.20;99.90;;;;;;4902098;29;20028;-94
2022/01/05 22:24:42;;;;;;;36.20;22.40;;;6.20;99.90;;;;;;4903934;29;20028;-95
2022/01/05 22:27:08;;;;;;;27.15;18.30;;;6.20;99.90;;;;;;4903509;29;20036;-96
2022/01/05 22:29:34;;;;;;;25.92;16.85;;;6.20;99.90;;;;;;4904146;29;20040;-96
2022/01/05 22:32:03;;;;;;;35.30;19.67;;;6.20;99.90;;;;;;4903931;29;20040;-96
2022/01/05 22:34:35;;;;;;;37.92;22.08;;;6.20;99.90;;;;;;4903149;29;20036;-95
2022/01/05 22:37:01;;;;;;;40.88;22.15;;;6.10;99.90;;;;;;4901982;29;20542;-95
2022/01/05 22:39:27;;;;;;;31.17;19.42;;;6.10;99.90;;;;;;4902712;29;20115;-95
2022/01/05 22:41:53;;;;;;;25.23;16.90;;;6.10;99.90;;;;;;4901892;29;20079;-96
2022/01/05 22:44:23;;;;;;;27.90;18.52;;;6.10;99.90;;;;;;4902168;29;20084;-96
2022/01/05 22:46:49;;;;;;;29.23;17.90;;;6.00;99.90;;;;;;4902592;29;20362;-95
2022/01/05 22:49:15;;;;;;;28.63;18.13;;;5.90;99.90;;;;;;4901606;29;20079;-95
2022/01/05 22:51:41;;;;;;;29.15;18.58;;;5.90;99.90;;;;;;4902364;29;20075;-95
2022/01/05 22:54:07;;;;;;;29.40;16.75;;;5.80;99.90;;;;;;4901635;29;20534;-96
2022/01/05 22:56:33;;;;;;;31.40;17.95;;;5.80;99.90;;;;;;4901293;29;20467;-95
2022/01/05 22:58:59;;;;;;;30.10;18.30;;;5.70;99.90;;;;;;4901451;29;20020;-94
2022/01/05 23:01:24;;;;;;;25.50;17.63;;;5.60;99.90;;;;;;4902243;29;20031;-95
2022/01/05 23:03:50;;;;;;;32.38;18.80;;;5.60;99.90;;;;;;4902403;29;20539;-95
2022/01/05 23:06:16;;;;;;;27.75;18.23;;;5.50;99.90;;;;;;4901721;29;20031;-95
2022/01/05 23:08:42;;;;;;;30.42;19.08;;;5.40;99.90;;;;;;4901402;29;20055;-96
2022/01/05 23:11:08;;;;;;;28.63;19.23;;;5.40;99.90;;;;;;4901370;29;20029;-95
2022/01/05 23:13:35;;;;;;;30.88;21.58;;;5.30;99.90;;;;;;4901330;29;20028;-94
2022/01/05 23:16:01;;;;;;;31.58;20.63;;;5.20;99.90;;;;;;4901492;29;20035;-95
2022/01/05 23:18:27;;;;;;;41.08;27.08;;;5.20;99.90;;;;;;4901661;29;20069;-95
2022/01/05 23:20:53;;;;;;;47.97;29.35;;;5.10;99.90;;;;;;4901562;29;20024;-96
2022/01/05 23:23:20;;;;;;;42.47;26.35;;;5.10;99.90;;;;;;4901684;29;20021;-96
2022/01/05 23:25:48;;;;;;;42.05;26.38;;;5.10;99.90;;;;;;4901315;29;20056;-95
2022/01/05 23:28:20;;;;;;;36.67;23.73;;;5.10;99.90;;;;;;4901250;29;20059;-96
2022/01/05 23:30:48;;;;;;;31.13;19.20;;;5.00;99.90;;;;;;4901109;29;20080;-95
2022/01/05 23:33:15;;;;;;;32.22;20.63;;;5.00;99.90;;;;;;4901176;29;20032;-94
2022/01/05 23:35:42;;;;;;;30.30;19.65;;;5.00;99.90;;;;;;4901317;29;20083;-96
2022/01/05 23:38:08;;;;;;;34.78;20.80;;;5.00;99.90;;;;;;4901887;29;20079;-95
2022/01/05 23:40:34;;;;;;;30.15;19.25;;;4.90;99.90;;;;;;4905859;29;20024;-95
2022/01/05 23:43:03;;;;;;;33.38;19.90;;;5.00;99.90;;;;;;4905964;29;20027;-95
2022/01/05 23:45:31;;;;;;;33.07;19.23;;;4.90;99.90;;;;;;4905207;29;20024;-96
2022/01/05 23:48:00;;;;;;;33.00;20.48;;;4.90;99.90;;;;;;4905699;29;20029;-96
2022/01/05 23:50:27;;;;;;;34.60;20.95;;;4.90;99.90;;;;;;4904721;29;20047;-95
2022/01/05 23:52:53;;;;;;;34.55;22.13;;;4.90;99.90;;;;;;4904730;29;20106;-95